createdAt,value
2019-03-18T00:00:25.703Z,0.90
2019-03-18T00:02:54.520Z,0.98
2019-03-18T00:05:22.973Z,0.57
2019-03-18T00:07:51.445Z,1.07
2019-03-18T00:10:21.350Z,0.72
2019-03-18T00:12:52.117Z,1.17
2019-03-18T00:15:20.737Z,0.93
2019-03-18T00:17:49.275Z,0.88
2019-03-18T00:20:17.723Z,1.10
2019-03-18T00:22:46.503Z,1.02
2019-03-18T00:25:15.895Z,1.10
2019-03-18T00:27:44.374Z,1.40
2019-03-18T00:30:14.990Z,1.40
2019-03-18T00:32:43.464Z,1.80
2019-03-18T00:35:12.178Z,1.25
2019-03-18T00:37:40.655Z,0.98
2019-03-18T00:40:12.325Z,1.00
2019-03-18T00:42:40.847Z,1.00
2019-03-18T00:45:14.681Z,1.32
2019-03-18T00:47:39.935Z,1.35
2019-03-18T00:50:11.511Z,1.20
2019-03-18T00:52:39.987Z,1.30
2019-03-18T00:55:09.471Z,1.50
2019-03-18T00:57:38.016Z,1.47
2019-03-18T01:00:17.731Z,1.50
2019-03-18T01:02:49.110Z,1.10
2019-03-18T01:05:16.536Z,1.30
2019-03-18T01:08:04.417Z,1.10
2019-03-18T01:10:33.167Z,1.07
2019-03-18T01:13:01.963Z,0.93
2019-03-18T01:15:30.747Z,1.05
2019-03-18T01:18:00.318Z,0.95
2019-03-18T01:20:28.765Z,0.93
2019-03-18T01:22:57.305Z,2.08
2019-03-18T01:25:25.752Z,1.45
2019-03-18T01:27:54.509Z,0.93
2019-03-18T01:30:23.057Z,1.70
2019-03-18T01:32:51.594Z,1.20
2019-03-18T01:35:20.056Z,1.72
2019-03-18T01:37:48.865Z,0.98
2019-03-18T01:40:17.354Z,0.98
2019-03-18T01:42:46.244Z,0.80
2019-03-18T01:45:15.150Z,0.90
2019-03-18T01:47:43.600Z,0.68
2019-03-18T01:50:16.535Z,1.05
2019-03-18T01:52:45.512Z,0.68
2019-03-18T01:55:14.407Z,0.80
2019-03-18T01:57:42.853Z,1.25
2019-03-18T02:00:17.519Z,0.88
2019-03-18T02:02:46.304Z,1.20
2019-03-18T02:05:14.851Z,1.00
2019-03-18T02:07:44.715Z,3.25
2019-03-18T02:10:15.651Z,1.92
2019-03-18T02:12:44.446Z,1.55
2019-03-18T02:15:14.171Z,1.57
2019-03-18T02:17:43.053Z,1.55
2019-03-18T02:20:19.351Z,1.25
2019-03-18T02:22:46.879Z,1.50
2019-03-18T02:25:15.680Z,2.00
2019-03-18T02:27:45.696Z,1.25
2019-03-18T02:30:18.272Z,1.98
2019-03-18T02:32:47.016Z,1.10
2019-03-18T02:35:15.766Z,1.52
2019-03-18T02:37:46.191Z,2.58
2019-03-18T02:40:14.984Z,1.90
2019-03-18T02:42:43.777Z,1.40
2019-03-18T02:45:12.492Z,2.08
2019-03-18T02:47:41.567Z,2.40
2019-03-18T02:50:11.484Z,1.47
2019-03-18T02:52:40.385Z,2.72
2019-03-18T02:55:09.689Z,1.82
2019-03-18T02:57:38.203Z,1.95
2019-03-18T03:00:11.952Z,1.60
2019-03-18T03:02:40.572Z,2.05
2019-03-18T03:05:11.280Z,2.00
2019-03-18T03:07:40.934Z,2.62
2019-03-18T03:10:11.219Z,1.67
2019-03-18T03:12:40.036Z,2.20
2019-03-18T03:15:10.866Z,2.70
2019-03-18T03:17:39.700Z,1.45
2019-03-18T03:20:10.434Z,1.52
2019-03-18T03:22:39.020Z,2.47
2019-03-18T03:25:09.362Z,1.37
2019-03-18T03:27:38.247Z,3.95
2019-03-18T03:30:10.273Z,1.25
2019-03-18T03:32:38.823Z,1.80
2019-03-18T03:35:07.999Z,2.77
2019-03-18T03:37:36.486Z,1.67
2019-03-18T03:40:07.797Z,2.83
2019-03-18T03:42:36.299Z,2.47
2019-03-18T03:45:07.167Z,2.10
2019-03-18T03:47:35.928Z,1.77
2019-03-18T03:50:06.859Z,3.92
2019-03-18T03:52:35.307Z,2.08
2019-03-18T03:55:05.172Z,2.05
2019-03-18T03:57:33.962Z,2.20
2019-03-18T04:00:03.600Z,2.10
2019-03-18T04:02:32.360Z,1.85
2019-03-18T04:05:00.848Z,2.00
2019-03-18T04:07:29.364Z,2.25
2019-03-18T04:09:57.846Z,2.05
2019-03-18T04:12:26.712Z,1.82
2019-03-18T04:14:55.181Z,2.00
2019-03-18T04:17:23.640Z,2.17
2019-03-18T04:19:52.479Z,2.65
2019-03-18T04:22:21.279Z,2.15
2019-03-18T04:24:50.164Z,2.45
2019-03-18T04:27:18.683Z,3.00
2019-03-18T04:29:47.231Z,2.52
2019-03-18T04:32:16.035Z,2.45
2019-03-18T04:34:44.824Z,2.62
2019-03-18T04:37:13.624Z,2.60
2019-03-18T04:39:42.144Z,2.10
2019-03-18T04:42:10.618Z,2.95
2019-03-18T04:44:39.383Z,2.90
2019-03-18T04:47:14.129Z,2.83
2019-03-18T04:49:38.714Z,3.17
2019-03-18T04:52:07.179Z,2.80
2019-03-18T04:54:35.987Z,2.60
2019-03-18T04:57:04.780Z,2.75
2019-03-18T04:59:33.578Z,2.75
2019-03-18T05:02:02.043Z,2.20
2019-03-18T05:04:30.581Z,2.50
2019-03-18T05:06:59.335Z,2.72
2019-03-18T05:09:27.796Z,2.52
2019-03-18T05:11:56.269Z,2.77
2019-03-18T05:14:25.107Z,2.58
2019-03-18T05:16:54.003Z,3.12
2019-03-18T05:19:22.523Z,2.95
2019-03-18T05:21:51.003Z,2.80
2019-03-18T05:24:19.863Z,3.42
2019-03-18T05:26:48.345Z,3.08
2019-03-18T05:29:17.143Z,3.20
2019-03-18T05:31:45.936Z,3.40
2019-03-18T05:34:14.729Z,3.08
2019-03-18T05:36:43.199Z,3.20
2019-03-18T05:39:11.647Z,3.42
2019-03-18T05:41:40.391Z,2.90
2019-03-18T05:44:08.914Z,2.75
2019-03-18T05:46:37.772Z,2.95
2019-03-18T05:49:06.563Z,3.20
2019-03-18T05:51:35.360Z,3.12
2019-03-18T05:54:04.148Z,3.17
2019-03-18T05:56:32.956Z,3.22
2019-03-18T05:59:01.835Z,2.83
2019-03-18T06:01:30.310Z,2.67
2019-03-18T06:03:59.115Z,3.40
2019-03-18T06:06:27.583Z,2.45
2019-03-18T06:08:56.406Z,2.40
2019-03-18T06:11:24.942Z,2.60
2019-03-18T06:13:56.307Z,2.80
2019-03-18T06:16:23.892Z,2.67
2019-03-18T06:18:52.415Z,2.33
2019-03-18T06:21:20.895Z,4.40
2019-03-18T06:23:49.660Z,3.15
2019-03-18T06:26:18.146Z,3.62
2019-03-18T06:28:46.939Z,3.67
2019-03-18T06:31:15.796Z,2.80
2019-03-18T06:33:44.370Z,4.00
2019-03-18T06:36:13.114Z,3.70
2019-03-18T06:38:41.563Z,3.15
2019-03-18T06:41:10.115Z,2.92
2019-03-18T06:43:38.655Z,4.12
2019-03-18T06:46:07.467Z,3.40
2019-03-18T06:48:36.202Z,2.92
2019-03-18T06:51:05.053Z,3.40
2019-03-18T06:53:33.847Z,2.65
2019-03-18T06:56:02.631Z,2.60
2019-03-18T06:58:31.110Z,2.60
2019-03-18T07:00:59.914Z,2.40
2019-03-18T07:03:28.703Z,1.92
2019-03-18T07:05:57.155Z,2.10
2019-03-18T07:08:25.988Z,2.10
2019-03-18T07:10:54.883Z,2.55
2019-03-18T07:13:23.676Z,3.22
2019-03-18T07:15:52.128Z,2.15
2019-03-18T07:18:20.602Z,2.58
2019-03-18T07:20:49.332Z,3.37
2019-03-18T07:23:17.809Z,2.47
2019-03-18T07:25:46.388Z,2.40
2019-03-18T07:28:14.883Z,2.40
2019-03-18T07:30:43.330Z,2.92
2019-03-18T07:33:11.804Z,2.30
2019-03-18T07:35:40.256Z,2.67
2019-03-18T07:38:09.043Z,2.72
2019-03-18T07:40:37.831Z,2.40
2019-03-18T07:43:06.302Z,3.27
2019-03-18T07:45:34.751Z,2.25
2019-03-18T07:48:03.503Z,3.10
2019-03-18T07:50:32.018Z,3.60
2019-03-18T07:53:00.540Z,3.52
2019-03-18T07:55:29.369Z,2.85
2019-03-18T07:57:58.268Z,1.77
2019-03-18T08:00:27.159Z,2.55
2019-03-18T08:02:56.054Z,2.90
2019-03-18T08:05:24.499Z,2.98
2019-03-18T08:07:52.971Z,2.02
2019-03-18T08:10:21.816Z,2.15
2019-03-18T08:12:50.295Z,2.72
2019-03-18T08:15:19.096Z,2.52
2019-03-18T08:17:47.884Z,2.08
2019-03-18T08:20:16.679Z,2.62
2019-03-18T08:22:45.472Z,2.58
2019-03-18T08:25:14.096Z,2.20
2019-03-18T08:27:42.647Z,2.22
2019-03-18T08:30:16.291Z,3.00
2019-03-18T08:32:44.794Z,2.40
2019-03-18T08:35:13.527Z,2.08
2019-03-18T08:37:41.995Z,2.02
2019-03-18T08:40:11.848Z,2.25
2019-03-18T08:42:40.730Z,2.60
2019-03-18T08:45:13.407Z,2.58
2019-03-18T08:47:42.305Z,2.30
2019-03-18T08:50:13.035Z,3.98
2019-03-18T08:52:41.739Z,3.08
2019-03-18T08:55:11.548Z,3.90
2019-03-18T08:57:40.344Z,2.83
2019-03-18T09:00:11.726Z,2.70
2019-03-18T09:02:40.484Z,2.60
2019-03-18T09:05:10.215Z,3.40
2019-03-18T09:07:38.738Z,3.15
2019-03-18T09:10:12.419Z,3.67
2019-03-18T09:12:41.159Z,4.73
2019-03-18T09:15:10.942Z,4.25
2019-03-18T09:17:39.410Z,5.30
2019-03-18T09:20:10.833Z,2.80
2019-03-18T09:22:39.619Z,3.37
2019-03-18T09:25:10.262Z,3.40
2019-03-18T09:27:38.726Z,2.87
2019-03-18T09:30:15.804Z,3.10
2019-03-18T09:32:45.414Z,3.87
2019-03-18T09:35:13.923Z,3.52
2019-03-18T09:37:42.719Z,4.35
2019-03-18T09:40:15.535Z,3.10
2019-03-18T09:42:44.391Z,4.00
2019-03-18T09:45:14.973Z,4.12
2019-03-18T09:47:43.723Z,3.52
2019-03-18T09:50:12.799Z,4.50
2019-03-18T09:52:41.615Z,3.15
2019-03-18T09:55:10.685Z,2.80
2019-03-18T09:57:39.403Z,3.08
2019-03-18T10:00:15.622Z,2.77
2019-03-18T10:02:44.071Z,2.72
2019-03-18T10:05:12.779Z,2.50
2019-03-18T10:07:41.531Z,2.55
2019-03-18T10:10:12.784Z,2.70
2019-03-18T10:12:41.231Z,2.90
2019-03-18T10:15:18.391Z,3.02
2019-03-18T10:17:46.844Z,2.72
2019-03-18T10:20:15.387Z,3.15
2019-03-18T10:22:43.937Z,3.05
2019-03-18T10:25:12.723Z,3.75
2019-03-18T10:27:41.501Z,3.47
2019-03-18T10:30:12.449Z,3.35
2019-03-18T10:32:41.231Z,2.55
2019-03-18T10:35:10.897Z,2.40
2019-03-18T10:37:39.634Z,2.20
2019-03-18T10:40:13.443Z,1.90
2019-03-18T10:42:41.895Z,4.80
2019-03-18T10:45:12.277Z,2.87
2019-03-18T10:47:40.879Z,2.75
2019-03-18T10:50:12.124Z,2.98
2019-03-18T10:52:40.891Z,1.90
2019-03-18T10:55:10.186Z,1.82
2019-03-18T10:57:38.987Z,2.12
2019-03-18T11:00:17.547Z,1.87
2019-03-18T11:02:46.283Z,2.27
2019-03-18T11:05:15.595Z,2.20
2019-03-18T11:07:44.140Z,2.50
2019-03-18T11:10:14.095Z,1.60
2019-03-18T11:12:42.751Z,2.30
2019-03-18T11:15:16.683Z,1.98
2019-03-18T11:17:45.166Z,2.00
2019-03-18T11:20:17.362Z,2.30
2019-03-18T11:22:45.905Z,1.52
2019-03-18T11:25:15.188Z,1.62
2019-03-18T11:27:43.660Z,1.60
2019-03-18T11:30:16.830Z,2.70
2019-03-18T11:32:45.456Z,1.60
2019-03-18T11:35:14.063Z,2.10
2019-03-18T11:37:42.780Z,2.40
2019-03-18T11:40:16.601Z,1.25
2019-03-18T11:42:45.087Z,1.90
2019-03-18T11:45:15.083Z,1.50
2019-03-18T11:47:43.695Z,1.50
2019-03-18T11:50:31.828Z,1.72
2019-03-18T11:53:00.928Z,1.32
2019-03-18T11:55:29.454Z,1.40
2019-03-18T11:57:57.998Z,1.00
2019-03-18T12:00:27.152Z,0.95
2019-03-18T12:02:55.622Z,1.80
2019-03-18T12:05:28.918Z,2.67
2019-03-18T12:07:57.470Z,1.40
2019-03-18T12:10:26.328Z,1.40
2019-03-18T12:12:54.922Z,1.00
2019-03-18T12:15:25.683Z,1.52
2019-03-18T12:17:54.361Z,1.60
2019-03-18T12:20:25.240Z,1.60
2019-03-18T12:22:53.672Z,1.80
2019-03-18T12:25:22.504Z,3.27
2019-03-18T12:27:51.053Z,0.88
2019-03-18T12:30:24.587Z,1.07
2019-03-18T12:32:53.061Z,1.22
2019-03-18T12:35:21.507Z,1.35
2019-03-18T12:37:49.979Z,1.20
2019-03-18T12:40:18.940Z,0.85
2019-03-18T12:42:47.580Z,1.12
2019-03-18T12:45:16.969Z,1.80
2019-03-18T12:47:45.608Z,1.50
2019-03-18T12:50:43.185Z,1.00
2019-03-18T12:52:54.402Z,0.90
2019-03-18T12:55:23.155Z,1.30
2019-03-18T12:57:51.965Z,1.20
2019-03-18T13:00:32.180Z,1.05
2019-03-18T13:03:00.820Z,1.80
2019-03-18T13:05:29.589Z,1.37
2019-03-18T13:07:58.062Z,0.93
2019-03-18T13:10:27.887Z,1.67
2019-03-18T13:12:56.682Z,1.82
2019-03-18T13:15:25.271Z,1.17
2019-03-18T13:17:53.746Z,1.42
2019-03-18T13:20:23.359Z,1.12
2019-03-18T13:22:53.903Z,1.20
2019-03-18T13:25:22.394Z,1.10
2019-03-18T13:27:51.013Z,1.20
2019-03-18T13:30:20.630Z,1.30
2019-03-18T13:32:49.384Z,0.98
2019-03-18T13:35:18.188Z,1.82
2019-03-18T13:37:46.805Z,1.30
2019-03-18T13:40:16.441Z,1.20
2019-03-18T13:42:45.468Z,1.00
2019-03-18T13:45:21.850Z,1.20
2019-03-18T13:47:50.328Z,1.52
2019-03-18T13:50:22.183Z,1.45
2019-03-18T13:52:50.656Z,1.85
2019-03-18T13:55:19.563Z,2.25
2019-03-18T13:57:48.459Z,2.02
2019-03-18T14:00:17.543Z,2.00
2019-03-18T14:02:46.024Z,2.55
2019-03-18T14:05:14.830Z,1.30
2019-03-18T14:07:43.727Z,1.52
2019-03-18T14:10:18.160Z,1.70
2019-03-18T14:12:46.971Z,2.92
2019-03-18T14:15:17.120Z,1.12
2019-03-18T14:17:45.606Z,1.00
2019-03-18T14:20:16.950Z,0.98
2019-03-18T14:22:45.699Z,1.20
2019-03-18T14:25:14.591Z,1.52
2019-03-18T14:27:43.510Z,1.02
2019-03-18T14:30:16.559Z,1.47
2019-03-18T14:32:45.371Z,1.12
2019-03-18T14:35:14.475Z,1.15
2019-03-18T14:37:43.373Z,3.00
2019-03-18T14:40:17.107Z,1.45
2019-03-18T14:42:45.867Z,1.30
2019-03-18T14:45:16.813Z,1.52
2019-03-18T14:47:45.260Z,1.90
2019-03-18T14:50:16.967Z,1.70
2019-03-18T14:52:46.053Z,1.65
2019-03-18T14:55:15.663Z,1.47
2019-03-18T14:57:44.111Z,1.30
2019-03-18T15:00:20.837Z,1.22
2019-03-18T15:02:49.683Z,1.20
2019-03-18T15:05:18.507Z,2.20
2019-03-18T15:07:47.301Z,3.85
2019-03-18T15:10:18.074Z,1.77
2019-03-18T15:12:46.523Z,1.65
2019-03-18T15:15:18.899Z,3.17
2019-03-18T15:17:47.999Z,2.35
2019-03-18T15:20:20.471Z,2.77
2019-03-18T15:22:49.276Z,3.33
2019-03-18T15:25:34.687Z,2.10
2019-03-18T15:28:03.435Z,1.87
2019-03-18T15:30:33.555Z,2.08
2019-03-18T15:33:02.352Z,1.70
2019-03-18T15:35:30.895Z,1.30
2019-03-18T15:37:59.343Z,1.40
2019-03-18T15:40:28.460Z,1.37
2019-03-18T15:42:57.046Z,1.87
2019-03-18T15:45:25.903Z,1.72
2019-03-18T15:47:54.791Z,1.00
2019-03-18T15:50:27.009Z,2.50
2019-03-18T15:52:55.529Z,1.75
2019-03-18T15:55:24.617Z,3.00
2019-03-18T15:57:54.171Z,2.25
2019-03-18T16:00:24.295Z,1.52
2019-03-18T16:02:52.752Z,1.90
2019-03-18T16:05:21.668Z,1.70
2019-03-18T16:07:50.115Z,2.02
2019-03-18T16:10:19.863Z,2.52
2019-03-18T16:12:48.864Z,1.82
2019-03-18T16:15:20.428Z,3.02
2019-03-18T16:17:49.624Z,2.30
2019-03-18T16:20:23.964Z,2.22
2019-03-18T16:22:52.483Z,1.80
2019-03-18T16:25:21.023Z,2.50
2019-03-18T16:27:49.812Z,2.55
2019-03-18T16:30:20.129Z,2.50
2019-03-18T16:32:48.595Z,2.15
2019-03-18T16:35:17.759Z,1.98
2019-03-18T16:37:46.215Z,1.37
2019-03-18T16:40:20.663Z,2.02
2019-03-18T16:42:49.251Z,2.12
2019-03-18T16:45:18.464Z,1.90
2019-03-18T16:47:47.225Z,1.90
2019-03-18T16:50:22.055Z,1.90
2019-03-18T16:52:50.580Z,1.52
2019-03-18T16:55:19.115Z,1.75
2019-03-18T16:57:47.563Z,1.57
2019-03-18T17:00:21.987Z,1.70
2019-03-18T17:02:50.438Z,1.67
2019-03-18T17:05:19.507Z,3.40
2019-03-18T17:07:47.955Z,1.42
2019-03-18T17:10:17.971Z,2.25
2019-03-18T17:12:46.497Z,2.00
2019-03-18T17:15:18.041Z,2.22
2019-03-18T17:17:46.486Z,2.52
2019-03-18T17:20:15.774Z,2.40
2019-03-18T17:22:49.468Z,2.70
2019-03-18T17:25:22.794Z,3.70
2019-03-18T17:27:51.636Z,2.33
2019-03-18T17:30:21.421Z,1.82
2019-03-18T17:32:49.963Z,2.17
2019-03-18T17:35:18.831Z,2.42
2019-03-18T17:37:47.618Z,6.92
2019-03-18T17:40:20.722Z,7.87
2019-03-18T17:42:49.273Z,3.22
2019-03-18T17:45:20.755Z,2.33
2019-03-18T17:47:49.544Z,2.10
2019-03-18T17:50:28.480Z,2.95
2019-03-18T17:53:02.899Z,4.95
2019-03-18T17:55:27.489Z,7.15
2019-03-18T17:57:56.286Z,7.08
2019-03-18T18:00:32.496Z,9.48
2019-03-18T18:03:01.270Z,5.62
2019-03-18T18:05:29.731Z,2.65
2019-03-18T18:07:58.618Z,2.77
2019-03-18T18:10:28.367Z,2.80
2019-03-18T18:12:56.839Z,3.87
2019-03-18T18:15:25.297Z,4.12
2019-03-18T18:17:53.848Z,4.90
2019-03-18T18:20:22.688Z,4.42
2019-03-18T18:22:51.248Z,5.85
2019-03-18T18:25:19.700Z,7.92
2019-03-18T18:27:48.351Z,8.23
2019-03-18T18:30:17.913Z,8.03
2019-03-18T18:32:46.755Z,6.90
2019-03-18T18:35:15.544Z,7.92
2019-03-18T18:37:44.096Z,7.60
2019-03-18T18:40:23.458Z,7.08
2019-03-18T18:42:51.927Z,5.55
2019-03-18T18:45:21.357Z,7.20
2019-03-18T18:47:50.094Z,6.33
2019-03-18T18:50:20.185Z,6.75
2019-03-18T18:52:48.668Z,6.97
2019-03-18T18:55:17.447Z,5.55
2019-03-18T18:57:46.235Z,7.28
2019-03-18T19:00:21.272Z,5.28
2019-03-18T19:02:50.172Z,4.92
2019-03-18T19:05:18.973Z,5.85
2019-03-18T19:07:47.983Z,7.55
2019-03-18T19:10:19.619Z,7.00
2019-03-18T19:12:48.418Z,6.30
2019-03-18T19:15:21.799Z,7.05
2019-03-18T19:17:50.269Z,6.15
2019-03-18T19:20:20.516Z,7.03
2019-03-18T19:22:48.994Z,6.72
2019-03-18T19:25:18.330Z,6.95
2019-03-18T19:27:47.206Z,5.87
2019-03-18T19:30:20.232Z,8.03
2019-03-18T19:32:48.783Z,7.58
2019-03-18T19:35:17.402Z,7.28
2019-03-18T19:37:45.879Z,6.90
2019-03-18T19:40:20.589Z,6.90
2019-03-18T19:42:49.151Z,6.30
2019-03-18T19:45:17.595Z,7.67
2019-03-18T19:47:46.147Z,7.65
2019-03-18T19:50:27.735Z,7.67
2019-03-18T19:52:56.234Z,7.65
2019-03-18T19:55:24.730Z,7.78
2019-03-18T19:57:53.204Z,7.95
2019-03-18T20:00:24.567Z,6.37
2019-03-18T20:02:53.859Z,7.03
2019-03-18T20:05:22.379Z,6.78
2019-03-18T20:07:50.832Z,5.80
2019-03-18T20:10:20.676Z,5.75
2019-03-18T20:12:49.227Z,6.05
2019-03-18T20:15:18.944Z,6.95
2019-03-18T20:17:47.829Z,4.85
2019-03-18T20:20:20.530Z,6.60
2019-03-18T20:22:49.040Z,4.60
2019-03-18T20:25:17.791Z,6.40
2019-03-18T20:27:46.243Z,6.87
2019-03-18T20:30:22.504Z,6.55
2019-03-18T20:32:51.436Z,7.03
2019-03-18T20:35:21.193Z,7.12
2019-03-18T20:37:51.961Z,6.50
2019-03-18T20:40:21.532Z,7.55
2019-03-18T20:42:49.994Z,7.37
2019-03-18T20:45:23.795Z,7.67
2019-03-18T20:47:52.321Z,8.00
2019-03-18T20:50:24.955Z,8.05
2019-03-18T20:52:53.818Z,7.30
2019-03-18T20:55:22.943Z,9.63
2019-03-18T20:57:51.406Z,9.55
2019-03-18T21:00:20.919Z,7.40
2019-03-18T21:02:49.736Z,8.00
2019-03-18T21:05:18.528Z,8.63
2019-03-18T21:07:47.321Z,10.03
2019-03-18T21:10:23.256Z,10.28
2019-03-18T21:12:51.783Z,11.48
2019-03-18T21:15:20.559Z,9.48
2019-03-18T21:17:49.083Z,9.08
2019-03-18T21:20:21.652Z,8.73
2019-03-18T21:22:50.411Z,8.53
2019-03-18T21:25:18.887Z,8.73
2019-03-18T21:27:47.330Z,8.15
2019-03-18T21:30:20.790Z,9.98
2019-03-18T21:32:49.393Z,9.77
2019-03-18T21:35:17.966Z,9.18
2019-03-18T21:37:46.749Z,9.15
2019-03-18T21:40:20.251Z,7.10
2019-03-18T21:42:48.708Z,7.53
2019-03-18T21:45:18.759Z,7.22
2019-03-18T21:47:47.217Z,6.95
2019-03-18T21:50:17.643Z,7.65
2019-03-18T21:52:46.167Z,7.87
2019-03-18T21:55:16.603Z,7.97
2019-03-18T21:57:45.483Z,7.58
2019-03-18T22:00:18.884Z,7.92
2019-03-18T22:02:47.398Z,9.60
2019-03-18T22:05:16.011Z,9.00
2019-03-18T22:07:44.735Z,10.53
2019-03-18T22:10:18.638Z,10.08
2019-03-18T22:12:47.632Z,8.65
2019-03-18T22:15:17.066Z,6.60
2019-03-18T22:17:45.652Z,5.85
2019-03-18T22:20:15.775Z,6.00
2019-03-18T22:22:44.325Z,6.70
2019-03-18T22:25:14.184Z,6.85
2019-03-18T22:27:43.070Z,7.60
2019-03-18T22:30:21.756Z,5.67
2019-03-18T22:32:50.214Z,5.45
2019-03-18T22:35:18.762Z,5.55
2019-03-18T22:37:47.211Z,5.37
2019-03-18T22:40:17.279Z,6.25
2019-03-18T22:42:46.062Z,6.15
2019-03-18T22:45:15.956Z,6.78
2019-03-18T22:47:44.775Z,6.33
2019-03-18T22:50:14.596Z,6.92
2019-03-18T22:52:43.047Z,6.60
2019-03-18T22:55:12.639Z,9.65
2019-03-18T22:57:41.379Z,9.05
2019-03-18T23:00:17.143Z,10.85
2019-03-18T23:02:46.028Z,9.65
2019-03-18T23:05:15.135Z,7.12
2019-03-18T23:07:43.588Z,7.15
2019-03-18T23:10:12.039Z,6.12
2019-03-18T23:12:40.787Z,7.85
2019-03-18T23:15:09.483Z,8.08
2019-03-18T23:17:38.856Z,9.18
2019-03-18T23:20:08.254Z,9.98
2019-03-18T23:22:36.867Z,10.60
2019-03-18T23:25:08.173Z,10.53
2019-03-18T23:27:36.923Z,10.45
2019-03-18T23:30:10.941Z,10.68
2019-03-18T23:32:39.819Z,11.00
2019-03-18T23:35:09.818Z,9.68
2019-03-18T23:37:40.384Z,8.03
2019-03-18T23:40:13.071Z,8.80
2019-03-18T23:42:41.550Z,9.43
2019-03-18T23:45:11.409Z,11.28
2019-03-18T23:47:42.597Z,10.25
2019-03-18T23:50:13.347Z,11.35
2019-03-18T23:52:42.086Z,11.75
2019-03-18T23:55:18.874Z,11.43
2019-03-18T23:57:43.311Z,9.35
